sensor_id;sensor_type;location;lat;lon;timestamp;P1;durP1;ratioP1;P2;durP2;ratioP2
21505;SDS011;10914;48.886;9.394;2022-07-23T00:00:03;25.50;;;23.90;;
21505;SDS011;10914;48.886;9.394;2022-07-23T00:02:28;26.13;;;24.33;;
21505;SDS011;10914;48.886;9.394;2022-07-23T00:04:53;25.47;;;23.87;;
21505;SDS011;10914;48.886;9.394;2022-07-23T00:07:18;24.70;;;23.10;;
21505;SDS011;10914;48.886;9.394;2022-07-23T00:09:43;24.83;;;23.23;;
21505;SDS011;10914;48.886;9.394;2022-07-23T00:12:09;24.70;;;23.17;;
21505;SDS011;10914;48.886;9.394;2022-07-23T00:14:34;23.93;;;22.20;;
21505;SDS011;10914;48.886;9.394;2022-07-23T00:16:59;24.53;;;22.87;;
21505;SDS011;10914;48.886;9.394;2022-07-23T00:19:24;25.57;;;23.83;;
21505;SDS011;10914;48.886;9.394;2022-07-23T00:21:50;23.55;;;22.15;;
21505;SDS011;10914;48.886;9.394;2022-07-23T00:24:15;24.30;;;22.70;;
21505;SDS011;10914;48.886;9.394;2022-07-23T00:26:40;24.27;;;22.80;;
21505;SDS011;10914;48.886;9.394;2022-07-23T00:29:05;23.60;;;22.20;;
21505;SDS011;10914;48.886;9.394;2022-07-23T00:31:31;23.17;;;21.67;;
21505;SDS011;10914;48.886;9.394;2022-07-23T00:33:57;24.33;;;22.65;;
21505;SDS011;10914;48.886;9.394;2022-07-23T00:36:25;24.40;;;22.70;;
21505;SDS011;10914;48.886;9.394;2022-07-23T00:38:50;23.63;;;22.13;;
21505;SDS011;10914;48.886;9.394;2022-07-23T00:41:15;24.47;;;22.77;;
21505;SDS011;10914;48.886;9.394;2022-07-23T00:43:40;23.75;;;22.35;;
21505;SDS011;10914;48.886;9.394;2022-07-23T00:46:05;23.50;;;21.97;;
21505;SDS011;10914;48.886;9.394;2022-07-23T00:48:31;23.27;;;21.97;;
21505;SDS011;10914;48.886;9.394;2022-07-23T00:50:56;23.40;;;21.90;;
21505;SDS011;10914;48.886;9.394;2022-07-23T00:53:21;24.13;;;22.53;;
21505;SDS011;10914;48.886;9.394;2022-07-23T00:55:47;23.98;;;22.42;;
21505;SDS011;10914;48.886;9.394;2022-07-23T00:58:12;23.90;;;22.33;;
21505;SDS011;10914;48.886;9.394;2022-07-23T01:00:38;22.93;;;21.40;;
21505;SDS011;10914;48.886;9.394;2022-07-23T01:03:03;23.03;;;21.53;;
21505;SDS011;10914;48.886;9.394;2022-07-23T01:05:28;23.33;;;21.92;;
21505;SDS011;10914;48.886;9.394;2022-07-23T01:07:53;23.70;;;22.33;;
21505;SDS011;10914;48.886;9.394;2022-07-23T01:10:19;22.67;;;21.27;;
21505;SDS011;10914;48.886;9.394;2022-07-23T01:12:57;23.08;;;21.70;;
21505;SDS011;10914;48.886;9.394;2022-07-23T01:15:22;23.75;;;22.35;;
21505;SDS011;10914;48.886;9.394;2022-07-23T01:17:47;23.75;;;22.33;;
21505;SDS011;10914;48.886;9.394;2022-07-23T01:20:12;23.90;;;22.40;;
21505;SDS011;10914;48.886;9.394;2022-07-23T01:22:37;24.00;;;22.03;;
21505;SDS011;10914;48.886;9.394;2022-07-23T01:25:04;22.55;;;21.25;;
21505;SDS011;10914;48.886;9.394;2022-07-23T01:27:29;23.42;;;21.95;;
21505;SDS011;10914;48.886;9.394;2022-07-23T01:29:56;23.25;;;21.85;;
21505;SDS011;10914;48.886;9.394;2022-07-23T01:32:22;22.77;;;21.38;;
21505;SDS011;10914;48.886;9.394;2022-07-23T01:34:47;22.92;;;21.60;;
21505;SDS011;10914;48.886;9.394;2022-07-23T01:37:12;23.33;;;21.83;;
21505;SDS011;10914;48.886;9.394;2022-07-23T01:39:37;22.85;;;21.55;;
21505;SDS011;10914;48.886;9.394;2022-07-23T01:42:02;23.10;;;21.53;;
21505;SDS011;10914;48.886;9.394;2022-07-23T01:44:28;23.00;;;21.63;;
21505;SDS011;10914;48.886;9.394;2022-07-23T01:46:53;23.67;;;22.27;;
21505;SDS011;10914;48.886;9.394;2022-07-23T01:49:18;23.02;;;21.73;;
21505;SDS011;10914;48.886;9.394;2022-07-23T01:51:43;23.02;;;21.73;;
21505;SDS011;10914;48.886;9.394;2022-07-23T01:54:24;23.73;;;22.20;;
21505;SDS011;10914;48.886;9.394;2022-07-23T01:56:49;22.77;;;21.42;;
21505;SDS011;10914;48.886;9.394;2022-07-23T01:59:15;22.98;;;21.58;;
21505;SDS011;10914;48.886;9.394;2022-07-23T02:01:40;22.45;;;21.15;;
21505;SDS011;10914;48.886;9.394;2022-07-23T02:04:05;22.60;;;21.30;;
21505;SDS011;10914;48.886;9.394;2022-07-23T02:06:30;22.88;;;21.55;;
21505;SDS011;10914;48.886;9.394;2022-07-23T02:08:55;23.92;;;22.45;;
21505;SDS011;10914;48.886;9.394;2022-07-23T02:11:20;24.00;;;22.60;;
21505;SDS011;10914;48.886;9.394;2022-07-23T02:13:46;22.63;;;21.33;;
21505;SDS011;10914;48.886;9.394;2022-07-23T02:16:11;23.87;;;22.47;;
21505;SDS011;10914;48.886;9.394;2022-07-23T02:18:36;24.98;;;23.60;;
21505;SDS011;10914;48.886;9.394;2022-07-23T02:21:01;25.37;;;23.87;;
21505;SDS011;10914;48.886;9.394;2022-07-23T02:23:26;23.70;;;22.40;;
21505;SDS011;10914;48.886;9.394;2022-07-23T02:25:51;34.60;;;32.60;;
21505;SDS011;10914;48.886;9.394;2022-07-23T02:28:17;25.13;;;23.73;;
21505;SDS011;10914;48.886;9.394;2022-07-23T02:30:42;29.85;;;28.15;;
21505;SDS011;10914;48.886;9.394;2022-07-23T02:33:07;32.33;;;30.57;;
21505;SDS011;10914;48.886;9.394;2022-07-23T02:35:32;33.38;;;31.58;;
21505;SDS011;10914;48.886;9.394;2022-07-23T02:37:57;26.10;;;24.63;;
21505;SDS011;10914;48.886;9.394;2022-07-23T02:40:23;34.43;;;32.53;;
21505;SDS011;10914;48.886;9.394;2022-07-23T02:42:48;25.15;;;23.50;;
21505;SDS011;10914;48.886;9.394;2022-07-23T02:45:13;24.27;;;22.90;;
21505;SDS011;10914;48.886;9.394;2022-07-23T02:47:38;23.77;;;22.37;;
21505;SDS011;10914;48.886;9.394;2022-07-23T02:50:04;24.30;;;22.92;;
21505;SDS011;10914;48.886;9.394;2022-07-23T02:52:30;22.95;;;21.65;;
21505;SDS011;10914;48.886;9.394;2022-07-23T02:54:55;22.70;;;21.30;;
21505;SDS011;10914;48.886;9.394;2022-07-23T02:57:20;23.73;;;22.03;;
21505;SDS011;10914;48.886;9.394;2022-07-23T02:59:45;36.45;;;34.40;;
21505;SDS011;10914;48.886;9.394;2022-07-23T03:02:10;26.67;;;25.07;;
21505;SDS011;10914;48.886;9.394;2022-07-23T03:04:36;25.60;;;24.10;;
21505;SDS011;10914;48.886;9.394;2022-07-23T03:07:01;28.07;;;26.33;;
21505;SDS011;10914;48.886;9.394;2022-07-23T03:09:26;26.53;;;24.87;;
21505;SDS011;10914;48.886;9.394;2022-07-23T03:11:51;25.77;;;24.17;;
21505;SDS011;10914;48.886;9.394;2022-07-23T03:14:16;26.20;;;24.67;;
21505;SDS011;10914;48.886;9.394;2022-07-23T03:16:42;30.17;;;28.48;;
21505;SDS011;10914;48.886;9.394;2022-07-23T03:19:07;27.40;;;25.85;;
21505;SDS011;10914;48.886;9.394;2022-07-23T03:21:32;28.47;;;26.73;;
21505;SDS011;10914;48.886;9.394;2022-07-23T03:23:57;26.90;;;25.30;;
21505;SDS011;10914;48.886;9.394;2022-07-23T03:26:22;32.60;;;30.80;;
21505;SDS011;10914;48.886;9.394;2022-07-23T03:28:50;30.23;;;28.50;;
21505;SDS011;10914;48.886;9.394;2022-07-23T03:31:15;28.67;;;27.00;;
21505;SDS011;10914;48.886;9.394;2022-07-23T03:33:40;24.88;;;23.48;;
21505;SDS011;10914;48.886;9.394;2022-07-23T03:36:06;30.73;;;28.98;;
21505;SDS011;10914;48.886;9.394;2022-07-23T03:38:31;24.55;;;23.15;;
21505;SDS011;10914;48.886;9.394;2022-07-23T03:40:56;37.47;;;35.38;;
21505;SDS011;10914;48.886;9.394;2022-07-23T03:43:24;34.07;;;31.90;;
21505;SDS011;10914;48.886;9.394;2022-07-23T03:45:50;25.90;;;24.38;;
21505;SDS011;10914;48.886;9.394;2022-07-23T03:48:16;25.75;;;24.15;;
21505;SDS011;10914;48.886;9.394;2022-07-23T03:50:41;25.20;;;23.70;;
21505;SDS011;10914;48.886;9.394;2022-07-23T03:53:06;30.07;;;28.27;;
21505;SDS011;10914;48.886;9.394;2022-07-23T03:55:31;34.83;;;32.88;;
21505;SDS011;10914;48.886;9.394;2022-07-23T03:57:56;27.37;;;25.77;;
21505;SDS011;10914;48.886;9.394;2022-07-23T04:00:22;32.93;;;31.03;;
21505;SDS011;10914;48.886;9.394;2022-07-23T04:02:47;27.17;;;25.48;;
21505;SDS011;10914;48.886;9.394;2022-07-23T04:05:12;27.43;;;25.83;;
21505;SDS011;10914;48.886;9.394;2022-07-23T04:07:37;36.93;;;35.03;;
21505;SDS011;10914;48.886;9.394;2022-07-23T04:10:02;39.10;;;37.03;;
21505;SDS011;10914;48.886;9.394;2022-07-23T04:12:28;46.30;;;43.83;;
21505;SDS011;10914;48.886;9.394;2022-07-23T04:14:53;45.20;;;42.80;;
21505;SDS011;10914;48.886;9.394;2022-07-23T04:17:18;48.50;;;45.97;;
21505;SDS011;10914;48.886;9.394;2022-07-23T04:19:43;48.23;;;45.63;;
21505;SDS011;10914;48.886;9.394;2022-07-23T04:22:09;44.17;;;41.83;;
21505;SDS011;10914;48.886;9.394;2022-07-23T04:24:35;51.72;;;48.83;;
21505;SDS011;10914;48.886;9.394;2022-07-23T04:27:00;45.95;;;43.55;;
21505;SDS011;10914;48.886;9.394;2022-07-23T04:29:26;38.42;;;36.35;;
21505;SDS011;10914;48.886;9.394;2022-07-23T04:31:51;49.42;;;46.88;;
21505;SDS011;10914;48.886;9.394;2022-07-23T04:34:16;52.92;;;50.13;;
21505;SDS011;10914;48.886;9.394;2022-07-23T04:36:41;49.80;;;47.17;;
21505;SDS011;10914;48.886;9.394;2022-07-23T04:39:07;53.93;;;51.17;;
21505;SDS011;10914;48.886;9.394;2022-07-23T04:41:32;55.87;;;53.07;;
21505;SDS011;10914;48.886;9.394;2022-07-23T04:43:57;62.38;;;59.10;;
21505;SDS011;10914;48.886;9.394;2022-07-23T04:46:22;61.97;;;58.53;;
21505;SDS011;10914;48.886;9.394;2022-07-23T04:48:47;42.83;;;40.63;;
21505;SDS011;10914;48.886;9.394;2022-07-23T04:51:13;43.57;;;41.17;;
21505;SDS011;10914;48.886;9.394;2022-07-23T04:53:38;45.15;;;42.70;;
21505;SDS011;10914;48.886;9.394;2022-07-23T04:56:03;42.35;;;40.05;;
21505;SDS011;10914;48.886;9.394;2022-07-23T04:58:29;45.47;;;43.03;;
21505;SDS011;10914;48.886;9.394;2022-07-23T05:00:54;43.53;;;41.13;;
21505;SDS011;10914;48.886;9.394;2022-07-23T05:03:20;52.72;;;49.92;;
21505;SDS011;10914;48.886;9.394;2022-07-23T05:05:45;59.47;;;56.37;;
21505;SDS011;10914;48.886;9.394;2022-07-23T05:08:11;34.55;;;32.65;;
21505;SDS011;10914;48.886;9.394;2022-07-23T05:10:36;29.17;;;27.48;;
21505;SDS011;10914;48.886;9.394;2022-07-23T05:13:01;38.42;;;36.33;;
21505;SDS011;10914;48.886;9.394;2022-07-23T05:15:27;35.90;;;33.90;;
21505;SDS011;10914;48.886;9.394;2022-07-23T05:17:52;37.05;;;35.05;;
21505;SDS011;10914;48.886;9.394;2022-07-23T05:20:17;39.03;;;36.93;;
21505;SDS011;10914;48.886;9.394;2022-07-23T05:22:42;32.00;;;30.20;;
21505;SDS011;10914;48.886;9.394;2022-07-23T05:25:08;27.98;;;26.30;;
21505;SDS011;10914;48.886;9.394;2022-07-23T05:27:33;24.83;;;23.35;;
21505;SDS011;10914;48.886;9.394;2022-07-23T05:29:58;24.35;;;22.85;;
21505;SDS011;10914;48.886;9.394;2022-07-23T05:32:24;25.63;;;24.02;;
21505;SDS011;10914;48.886;9.394;2022-07-23T05:34:49;23.48;;;22.02;;
21505;SDS011;10914;48.886;9.394;2022-07-23T05:37:15;25.40;;;23.85;;
21505;SDS011;10914;48.886;9.394;2022-07-23T05:39:40;23.58;;;22.17;;
21505;SDS011;10914;48.886;9.394;2022-07-23T05:42:05;24.58;;;23.08;;
21505;SDS011;10914;48.886;9.394;2022-07-23T05:44:30;25.00;;;23.50;;
21505;SDS011;10914;48.886;9.394;2022-07-23T05:46:56;26.27;;;24.77;;
21505;SDS011;10914;48.886;9.394;2022-07-23T05:49:21;24.83;;;23.40;;
21505;SDS011;10914;48.886;9.394;2022-07-23T05:51:46;25.73;;;24.10;;
21505;SDS011;10914;48.886;9.394;2022-07-23T05:54:11;24.33;;;22.83;;
21505;SDS011;10914;48.886;9.394;2022-07-23T05:56:36;23.55;;;22.15;;
21505;SDS011;10914;48.886;9.394;2022-07-23T05:59:02;25.80;;;24.30;;
21505;SDS011;10914;48.886;9.394;2022-07-23T06:01:27;26.90;;;25.20;;
21505;SDS011;10914;48.886;9.394;2022-07-23T06:03:52;25.10;;;23.50;;
21505;SDS011;10914;48.886;9.394;2022-07-23T06:06:17;23.33;;;21.93;;
21505;SDS011;10914;48.886;9.394;2022-07-23T06:08:42;23.93;;;22.53;;
21505;SDS011;10914;48.886;9.394;2022-07-23T06:11:08;23.33;;;21.90;;
21505;SDS011;10914;48.886;9.394;2022-07-23T06:13:33;23.42;;;22.02;;
21505;SDS011;10914;48.886;9.394;2022-07-23T06:15:58;23.47;;;22.03;;
21505;SDS011;10914;48.886;9.394;2022-07-23T06:18:23;23.93;;;22.50;;
21505;SDS011;10914;48.886;9.394;2022-07-23T06:20:48;25.20;;;23.70;;
21505;SDS011;10914;48.886;9.394;2022-07-23T06:23:14;24.43;;;22.93;;
21505;SDS011;10914;48.886;9.394;2022-07-23T06:25:39;24.73;;;23.23;;
21505;SDS011;10914;48.886;9.394;2022-07-23T06:28:04;24.27;;;22.87;;
21505;SDS011;10914;48.886;9.394;2022-07-23T06:30:29;24.50;;;23.00;;
21505;SDS011;10914;48.886;9.394;2022-07-23T06:32:55;25.38;;;23.77;;
21505;SDS011;10914;48.886;9.394;2022-07-23T06:35:20;24.85;;;23.35;;
21505;SDS011;10914;48.886;9.394;2022-07-23T06:37:45;26.00;;;24.40;;
21505;SDS011;10914;48.886;9.394;2022-07-23T06:40:11;24.87;;;23.37;;
21505;SDS011;10914;48.886;9.394;2022-07-23T06:42:36;26.20;;;24.70;;
21505;SDS011;10914;48.886;9.394;2022-07-23T06:45:04;25.40;;;23.70;;
21505;SDS011;10914;48.886;9.394;2022-07-23T06:47:29;25.90;;;24.40;;
21505;SDS011;10914;48.886;9.394;2022-07-23T06:49:55;26.00;;;24.23;;
21505;SDS011;10914;48.886;9.394;2022-07-23T06:52:20;25.88;;;24.27;;
21505;SDS011;10914;48.886;9.394;2022-07-23T06:54:45;26.77;;;25.07;;
21505;SDS011;10914;48.886;9.394;2022-07-23T06:57:10;25.70;;;24.10;;
21505;SDS011;10914;48.886;9.394;2022-07-23T06:59:36;27.30;;;25.40;;
21505;SDS011;10914;48.886;9.394;2022-07-23T07:02:05;26.98;;;25.27;;
21505;SDS011;10914;48.886;9.394;2022-07-23T07:04:30;26.60;;;25.05;;
21505;SDS011;10914;48.886;9.394;2022-07-23T07:06:56;26.42;;;24.63;;
21505;SDS011;10914;48.886;9.394;2022-07-23T07:09:22;27.70;;;25.77;;
21505;SDS011;10914;48.886;9.394;2022-07-23T07:11:47;26.77;;;24.92;;
21505;SDS011;10914;48.886;9.394;2022-07-23T07:14:12;27.83;;;25.90;;
21505;SDS011;10914;48.886;9.394;2022-07-23T07:16:37;28.17;;;26.17;;
21505;SDS011;10914;48.886;9.394;2022-07-23T07:19:02;28.53;;;26.53;;
21505;SDS011;10914;48.886;9.394;2022-07-23T07:21:28;29.27;;;27.27;;
21505;SDS011;10914;48.886;9.394;2022-07-23T07:23:53;31.30;;;29.10;;
21505;SDS011;10914;48.886;9.394;2022-07-23T07:26:18;28.40;;;26.50;;
21505;SDS011;10914;48.886;9.394;2022-07-23T07:28:43;27.87;;;26.17;;
21505;SDS011;10914;48.886;9.394;2022-07-23T07:31:09;27.60;;;25.70;;
21505;SDS011;10914;48.886;9.394;2022-07-23T07:33:34;28.20;;;26.20;;
21505;SDS011;10914;48.886;9.394;2022-07-23T07:35:59;27.75;;;25.90;;
21505;SDS011;10914;48.886;9.394;2022-07-23T07:38:25;28.83;;;26.63;;
21505;SDS011;10914;48.886;9.394;2022-07-23T07:40:50;27.90;;;26.05;;
21505;SDS011;10914;48.886;9.394;2022-07-23T07:43:15;28.43;;;26.40;;
21505;SDS011;10914;48.886;9.394;2022-07-23T07:45:41;28.07;;;26.27;;
21505;SDS011;10914;48.886;9.394;2022-07-23T07:48:06;27.97;;;26.13;;
21505;SDS011;10914;48.886;9.394;2022-07-23T07:50:31;29.80;;;27.70;;
21505;SDS011;10914;48.886;9.394;2022-07-23T07:52:56;33.60;;;31.35;;
21505;SDS011;10914;48.886;9.394;2022-07-23T07:55:22;30.20;;;28.20;;
21505;SDS011;10914;48.886;9.394;2022-07-23T07:57:47;45.78;;;43.08;;
21505;SDS011;10914;48.886;9.394;2022-07-23T08:00:12;48.90;;;46.10;;
21505;SDS011;10914;48.886;9.394;2022-07-23T08:02:41;47.92;;;45.17;;
21505;SDS011;10914;48.886;9.394;2022-07-23T08:05:07;36.75;;;34.40;;
21505;SDS011;10914;48.886;9.394;2022-07-23T08:07:32;29.20;;;27.40;;
21505;SDS011;10914;48.886;9.394;2022-07-23T08:09:57;29.53;;;27.63;;
21505;SDS011;10914;48.886;9.394;2022-07-23T08:12:22;34.77;;;32.57;;
21505;SDS011;10914;48.886;9.394;2022-07-23T08:14:48;30.40;;;28.40;;
21505;SDS011;10914;48.886;9.394;2022-07-23T08:17:13;28.50;;;26.40;;
21505;SDS011;10914;48.886;9.394;2022-07-23T08:19:38;29.25;;;27.42;;
21505;SDS011;10914;48.886;9.394;2022-07-23T08:22:03;35.20;;;32.95;;
21505;SDS011;10914;48.886;9.394;2022-07-23T08:24:28;43.70;;;41.20;;
21505;SDS011;10914;48.886;9.394;2022-07-23T08:26:54;48.23;;;45.60;;
21505;SDS011;10914;48.886;9.394;2022-07-23T08:29:19;44.88;;;42.28;;
21505;SDS011;10914;48.886;9.394;2022-07-23T08:31:44;74.77;;;70.93;;
21505;SDS011;10914;48.886;9.394;2022-07-23T08:34:10;45.25;;;42.67;;
21505;SDS011;10914;48.886;9.394;2022-07-23T08:36:35;35.63;;;33.38;;
21505;SDS011;10914;48.886;9.394;2022-07-23T08:39:01;28.02;;;26.15;;
21505;SDS011;10914;48.886;9.394;2022-07-23T08:41:28;28.58;;;26.77;;
21505;SDS011;10914;48.886;9.394;2022-07-23T08:43:53;26.40;;;24.43;;
21505;SDS011;10914;48.886;9.394;2022-07-23T08:46:19;27.45;;;25.75;;
21505;SDS011;10914;48.886;9.394;2022-07-23T08:48:44;28.52;;;26.65;;
21505;SDS011;10914;48.886;9.394;2022-07-23T08:51:12;30.77;;;28.80;;
21505;SDS011;10914;48.886;9.394;2022-07-23T08:53:37;25.75;;;24.15;;
21505;SDS011;10914;48.886;9.394;2022-07-23T08:56:05;26.05;;;24.33;;
21505;SDS011;10914;48.886;9.394;2022-07-23T08:58:30;25.77;;;24.17;;
21505;SDS011;10914;48.886;9.394;2022-07-23T09:00:56;26.55;;;24.75;;
21505;SDS011;10914;48.886;9.394;2022-07-23T09:03:42;27.33;;;25.63;;
21505;SDS011;10914;48.886;9.394;2022-07-23T09:06:09;25.65;;;24.05;;
21505;SDS011;10914;48.886;9.394;2022-07-23T09:08:36;24.63;;;23.13;;
21505;SDS011;10914;48.886;9.394;2022-07-23T09:11:03;26.67;;;24.88;;
21505;SDS011;10914;48.886;9.394;2022-07-23T09:13:29;26.20;;;24.60;;
21505;SDS011;10914;48.886;9.394;2022-07-23T09:15:56;24.23;;;22.83;;
21505;SDS011;10914;48.886;9.394;2022-07-23T09:18:29;25.25;;;23.70;;
21505;SDS011;10914;48.886;9.394;2022-07-23T09:23:36;23.83;;;22.42;;
21505;SDS011;10914;48.886;9.394;2022-07-23T09:26:01;25.42;;;23.75;;
21505;SDS011;10914;48.886;9.394;2022-07-23T09:28:27;24.90;;;23.40;;
21505;SDS011;10914;48.886;9.394;2022-07-23T09:30:52;26.10;;;24.40;;
21505;SDS011;10914;48.886;9.394;2022-07-23T09:33:17;26.08;;;24.48;;
21505;SDS011;10914;48.886;9.394;2022-07-23T09:35:52;24.17;;;22.77;;
21505;SDS011;10914;48.886;9.394;2022-07-23T09:38:18;24.38;;;22.85;;
21505;SDS011;10914;48.886;9.394;2022-07-23T09:40:44;23.70;;;22.17;;
21505;SDS011;10914;48.886;9.394;2022-07-23T09:43:11;22.88;;;21.50;;
21505;SDS011;10914;48.886;9.394;2022-07-23T09:45:37;23.55;;;22.05;;
21505;SDS011;10914;48.886;9.394;2022-07-23T09:48:14;23.75;;;22.33;;
21505;SDS011;10914;48.886;9.394;2022-07-23T09:50:40;23.52;;;22.08;;
21505;SDS011;10914;48.886;9.394;2022-07-23T09:53:05;22.98;;;21.58;;
21505;SDS011;10914;48.886;9.394;2022-07-23T09:55:32;24.10;;;22.60;;
21505;SDS011;10914;48.886;9.394;2022-07-23T09:58:06;23.23;;;21.80;;
21505;SDS011;10914;48.886;9.394;2022-07-23T10:00:36;23.58;;;22.05;;
21505;SDS011;10914;48.886;9.394;2022-07-23T10:03:02;23.73;;;22.23;;
21505;SDS011;10914;48.886;9.394;2022-07-23T10:05:28;24.13;;;22.60;;
21505;SDS011;10914;48.886;9.394;2022-07-23T10:07:54;24.67;;;22.92;;
21505;SDS011;10914;48.886;9.394;2022-07-23T10:10:19;24.80;;;23.20;;
21505;SDS011;10914;48.886;9.394;2022-07-23T10:12:45;24.00;;;22.60;;
21505;SDS011;10914;48.886;9.394;2022-07-23T10:15:16;23.13;;;21.63;;
21505;SDS011;10914;48.886;9.394;2022-07-23T10:17:42;23.77;;;22.25;;
21505;SDS011;10914;48.886;9.394;2022-07-23T10:20:07;23.92;;;22.42;;
21505;SDS011;10914;48.886;9.394;2022-07-23T10:25:26;22.58;;;21.15;;
21505;SDS011;10914;48.886;9.394;2022-07-23T10:28:04;22.42;;;21.05;;
21505;SDS011;10914;48.886;9.394;2022-07-23T10:30:36;23.67;;;22.05;;
21505;SDS011;10914;48.886;9.394;2022-07-23T10:38:27;23.38;;;21.98;;
21505;SDS011;10914;48.886;9.394;2022-07-23T10:40:54;24.30;;;22.80;;
21505;SDS011;10914;48.886;9.394;2022-07-23T10:43:20;22.27;;;20.98;;
21505;SDS011;10914;48.886;9.394;2022-07-23T10:45:46;22.85;;;21.45;;
21505;SDS011;10914;48.886;9.394;2022-07-23T10:48:18;24.63;;;23.23;;
21505;SDS011;10914;48.886;9.394;2022-07-23T10:50:44;22.13;;;20.70;;
21505;SDS011;10914;48.886;9.394;2022-07-23T10:53:14;22.40;;;21.00;;
21505;SDS011;10914;48.886;9.394;2022-07-23T10:58:06;23.57;;;22.23;;
21505;SDS011;10914;48.886;9.394;2022-07-23T11:00:32;22.48;;;21.08;;
21505;SDS011;10914;48.886;9.394;2022-07-23T11:02:58;22.60;;;21.20;;
21505;SDS011;10914;48.886;9.394;2022-07-23T11:05:25;23.17;;;21.73;;
21505;SDS011;10914;48.886;9.394;2022-07-23T11:10:32;23.77;;;22.38;;
21505;SDS011;10914;48.886;9.394;2022-07-23T11:13:25;23.48;;;22.08;;
21505;SDS011;10914;48.886;9.394;2022-07-23T11:23:58;21.77;;;20.55;;
21505;SDS011;10914;48.886;9.394;2022-07-23T11:31:55;22.13;;;20.83;;
21505;SDS011;10914;48.886;9.394;2022-07-23T11:36:52;20.48;;;19.27;;
21505;SDS011;10914;48.886;9.394;2022-07-23T11:39:17;21.33;;;20.02;;
21505;SDS011;10914;48.886;9.394;2022-07-23T11:41:46;21.95;;;20.70;;
21505;SDS011;10914;48.886;9.394;2022-07-23T11:46:58;21.77;;;20.40;;
21505;SDS011;10914;48.886;9.394;2022-07-23T11:49:23;22.70;;;21.15;;
21505;SDS011;10914;48.886;9.394;2022-07-23T11:54:48;20.65;;;19.40;;
21505;SDS011;10914;48.886;9.394;2022-07-23T11:57:14;21.58;;;20.27;;
21505;SDS011;10914;48.886;9.394;2022-07-23T11:59:40;21.65;;;20.20;;
21505;SDS011;10914;48.886;9.394;2022-07-23T12:02:06;22.80;;;21.50;;
21505;SDS011;10914;48.886;9.394;2022-07-23T12:07:03;23.40;;;22.00;;
21505;SDS011;10914;48.886;9.394;2022-07-23T12:09:28;24.67;;;23.27;;
21505;SDS011;10914;48.886;9.394;2022-07-23T12:12:00;23.80;;;22.40;;
21505;SDS011;10914;48.886;9.394;2022-07-23T12:14:25;21.35;;;20.15;;
21505;SDS011;10914;48.886;9.394;2022-07-23T12:17:06;23.17;;;21.77;;
21505;SDS011;10914;48.886;9.394;2022-07-23T12:19:31;21.70;;;20.40;;
21505;SDS011;10914;48.886;9.394;2022-07-23T12:21:57;21.45;;;20.20;;
21505;SDS011;10914;48.886;9.394;2022-07-23T12:24:22;22.37;;;20.97;;
21505;SDS011;10914;48.886;9.394;2022-07-23T12:29:35;21.13;;;19.88;;
21505;SDS011;10914;48.886;9.394;2022-07-23T12:32:00;21.75;;;20.25;;
21505;SDS011;10914;48.886;9.394;2022-07-23T12:34:25;22.37;;;21.07;;
21505;SDS011;10914;48.886;9.394;2022-07-23T12:36:51;23.42;;;22.10;;
21505;SDS011;10914;48.886;9.394;2022-07-23T12:39:31;23.30;;;22.00;;
21505;SDS011;10914;48.886;9.394;2022-07-23T12:41:57;25.60;;;24.20;;
21505;SDS011;10914;48.886;9.394;2022-07-23T12:44:25;21.90;;;20.63;;
21505;SDS011;10914;48.886;9.394;2022-07-23T12:46:51;24.65;;;22.67;;
21505;SDS011;10914;48.886;9.394;2022-07-23T12:49:26;24.45;;;22.50;;
21505;SDS011;10914;48.886;9.394;2022-07-23T12:51:52;23.73;;;22.13;;
21505;SDS011;10914;48.886;9.394;2022-07-23T12:54:17;24.10;;;22.55;;
21505;SDS011;10914;48.886;9.394;2022-07-23T12:56:45;23.30;;;21.90;;
21505;SDS011;10914;48.886;9.394;2022-07-23T12:59:11;22.13;;;20.80;;
21505;SDS011;10914;48.886;9.394;2022-07-23T13:01:39;24.38;;;22.98;;
21505;SDS011;10914;48.886;9.394;2022-07-23T13:04:06;22.63;;;21.33;;
21505;SDS011;10914;48.886;9.394;2022-07-23T13:06:35;23.08;;;21.77;;
21505;SDS011;10914;48.886;9.394;2022-07-23T13:09:02;22.17;;;20.85;;
21505;SDS011;10914;48.886;9.394;2022-07-23T13:11:27;22.35;;;20.98;;
21505;SDS011;10914;48.886;9.394;2022-07-23T13:13:52;22.20;;;20.80;;
21505;SDS011;10914;48.886;9.394;2022-07-23T13:16:18;22.08;;;20.58;;
21505;SDS011;10914;48.886;9.394;2022-07-23T13:18:43;21.92;;;20.63;;
21505;SDS011;10914;48.886;9.394;2022-07-23T13:21:08;21.90;;;20.50;;
21505;SDS011;10914;48.886;9.394;2022-07-23T13:23:34;21.45;;;20.15;;
21505;SDS011;10914;48.886;9.394;2022-07-23T13:25:59;21.60;;;20.30;;
21505;SDS011;10914;48.886;9.394;2022-07-23T13:28:24;22.77;;;21.37;;
21505;SDS011;10914;48.886;9.394;2022-07-23T13:30:50;22.13;;;20.73;;
21505;SDS011;10914;48.886;9.394;2022-07-23T13:33:16;22.70;;;21.35;;
21505;SDS011;10914;48.886;9.394;2022-07-23T13:35:42;23.95;;;22.55;;
21505;SDS011;10914;48.886;9.394;2022-07-23T13:38:07;22.98;;;21.58;;
21505;SDS011;10914;48.886;9.394;2022-07-23T13:40:33;22.65;;;21.23;;
21505;SDS011;10914;48.886;9.394;2022-07-23T13:42:59;22.45;;;20.85;;
21505;SDS011;10914;48.886;9.394;2022-07-23T13:45:24;23.60;;;22.20;;
21505;SDS011;10914;48.886;9.394;2022-07-23T13:47:49;22.90;;;21.53;;
21505;SDS011;10914;48.886;9.394;2022-07-23T13:50:15;24.00;;;22.57;;
21505;SDS011;10914;48.886;9.394;2022-07-23T13:52:41;23.67;;;22.27;;
21505;SDS011;10914;48.886;9.394;2022-07-23T13:55:06;22.95;;;21.55;;
21505;SDS011;10914;48.886;9.394;2022-07-23T13:57:32;22.60;;;21.20;;
21505;SDS011;10914;48.886;9.394;2022-07-23T13:59:58;23.03;;;21.63;;
21505;SDS011;10914;48.886;9.394;2022-07-23T14:02:23;23.75;;;22.35;;
21505;SDS011;10914;48.886;9.394;2022-07-23T14:04:48;21.45;;;19.95;;
21505;SDS011;10914;48.886;9.394;2022-07-23T14:07:14;23.02;;;21.48;;
21505;SDS011;10914;48.886;9.394;2022-07-23T14:09:39;22.77;;;21.37;;
21505;SDS011;10914;48.886;9.394;2022-07-23T14:12:04;22.27;;;20.83;;
21505;SDS011;10914;48.886;9.394;2022-07-23T14:14:29;22.33;;;20.88;;
21505;SDS011;10914;48.886;9.394;2022-07-23T14:16:55;20.77;;;19.47;;
21505;SDS011;10914;48.886;9.394;2022-07-23T14:19:20;22.35;;;21.05;;
21505;SDS011;10914;48.886;9.394;2022-07-23T14:21:45;22.47;;;21.07;;
21505;SDS011;10914;48.886;9.394;2022-07-23T14:24:13;22.38;;;20.98;;
21505;SDS011;10914;48.886;9.394;2022-07-23T14:26:38;22.17;;;20.77;;
21505;SDS011;10914;48.886;9.394;2022-07-23T14:29:03;21.73;;;20.42;;
21505;SDS011;10914;48.886;9.394;2022-07-23T14:31:29;21.17;;;19.87;;
21505;SDS011;10914;48.886;9.394;2022-07-23T14:33:54;21.23;;;19.90;;
21505;SDS011;10914;48.886;9.394;2022-07-23T14:36:19;21.23;;;20.03;;
21505;SDS011;10914;48.886;9.394;2022-07-23T14:38:44;20.90;;;19.50;;
21505;SDS011;10914;48.886;9.394;2022-07-23T14:41:10;20.83;;;19.63;;
21505;SDS011;10914;48.886;9.394;2022-07-23T14:43:36;22.42;;;21.02;;
21505;SDS011;10914;48.886;9.394;2022-07-23T14:46:01;22.67;;;21.17;;
21505;SDS011;10914;48.886;9.394;2022-07-23T14:48:26;21.30;;;20.00;;
21505;SDS011;10914;48.886;9.394;2022-07-23T14:50:51;22.37;;;20.90;;
21505;SDS011;10914;48.886;9.394;2022-07-23T14:53:17;22.30;;;20.77;;
21505;SDS011;10914;48.886;9.394;2022-07-23T14:55:42;20.57;;;19.37;;